createdAt,value
2023-03-11T00:02:57.346Z,2.72
2023-03-11T00:06:02.320Z,5.65
2023-03-11T00:09:06.687Z,1.70
2023-03-11T00:12:11.006Z,1.52
2023-03-11T00:15:14.903Z,1.77
2023-03-11T00:18:19.160Z,3.42
2023-03-11T00:21:23.608Z,1.75
2023-03-11T00:24:28.080Z,4.38
2023-03-11T00:27:32.248Z,3.50
2023-03-11T00:30:36.796Z,3.95
2023-03-11T00:33:40.987Z,3.00
2023-03-11T00:36:45.193Z,4.20
2023-03-11T00:39:49.852Z,5.28
2023-03-11T00:42:54.011Z,5.13
2023-03-11T00:45:58.160Z,5.03
2023-03-11T00:49:02.620Z,4.80
2023-03-11T00:52:06.974Z,5.43
2023-03-11T00:55:13.937Z,5.45
2023-03-11T00:58:18.027Z,7.15
2023-03-11T01:01:22.796Z,6.72
2023-03-11T01:04:26.698Z,6.85
2023-03-11T01:07:31.430Z,7.03
2023-03-11T01:10:37.300Z,7.82
2023-03-11T01:13:41.948Z,8.02
2023-03-11T01:16:46.498Z,8.98
2023-03-11T01:19:50.451Z,8.05
2023-03-11T01:22:54.615Z,8.73
2023-03-11T01:25:59.480Z,9.50
2023-03-11T01:29:03.881Z,9.35
2023-03-11T01:32:08.806Z,10.40
2023-03-11T01:35:15.279Z,10.00
2023-03-11T01:38:19.344Z,9.35
2023-03-11T01:41:23.498Z,12.88
2023-03-11T01:44:27.865Z,10.13
2023-03-11T01:47:38.502Z,8.80
2023-03-11T01:50:49.893Z,8.40
2023-03-11T01:53:55.906Z,8.93
2023-03-11T01:57:05.085Z,9.35
2023-03-11T02:00:12.178Z,8.80
2023-03-11T02:03:21.698Z,9.57
2023-03-11T02:06:26.183Z,9.82
2023-03-11T02:09:30.036Z,11.05
2023-03-11T02:12:36.486Z,12.25
2023-03-11T02:15:40.767Z,11.85
2023-03-11T02:18:45.103Z,15.90
2023-03-11T02:21:49.633Z,13.25
2023-03-11T02:25:03.124Z,12.73
2023-03-11T02:28:10.182Z,14.85
2023-03-11T02:31:15.161Z,13.40
2023-03-11T02:34:29.442Z,13.35
2023-03-11T02:43:49.640Z,13.43
2023-03-11T02:46:53.966Z,13.50
2023-03-11T02:49:58.076Z,13.27
2023-03-11T02:53:02.269Z,13.43
2023-03-11T02:56:06.487Z,13.25
2023-03-11T02:59:10.740Z,13.20
2023-03-11T03:02:15.153Z,15.02
2023-03-11T03:05:21.449Z,16.17
2023-03-11T03:08:25.604Z,16.55
2023-03-11T03:11:29.831Z,16.77
2023-03-11T03:14:34.737Z,16.55
2023-03-11T03:17:39.274Z,16.10
2023-03-11T03:20:44.029Z,15.40
2023-03-11T03:23:47.586Z,16.65
2023-03-11T03:26:52.234Z,17.50
2023-03-11T03:29:56.093Z,15.65
2023-03-11T03:33:00.843Z,17.15
2023-03-11T03:36:11.004Z,16.35
2023-03-11T03:39:15.141Z,15.13
2023-03-11T03:42:19.420Z,15.77
2023-03-11T03:45:23.517Z,13.35
2023-03-11T03:48:28.171Z,13.90
2023-03-11T03:51:31.995Z,15.30
2023-03-11T03:54:37.311Z,16.50
2023-03-11T03:57:41.384Z,16.75
2023-03-11T04:00:45.755Z,17.52
2023-03-11T04:03:49.929Z,18.17
2023-03-11T04:06:54.193Z,17.23
2023-03-11T04:09:58.533Z,16.63
2023-03-11T04:13:03.006Z,17.40
2023-03-11T04:16:07.725Z,17.67
2023-03-11T04:19:11.997Z,18.02
2023-03-11T04:22:16.163Z,16.42
2023-03-11T04:25:20.525Z,16.27
2023-03-11T04:28:24.566Z,16.60
2023-03-11T04:31:28.826Z,17.02
2023-03-11T04:34:33.196Z,17.67
2023-03-11T04:37:37.519Z,14.77
2023-03-11T04:40:41.786Z,13.45
2023-03-11T04:43:45.872Z,13.88
2023-03-11T04:46:49.725Z,14.98
2023-03-11T04:49:56.080Z,13.38
2023-03-11T04:53:00.337Z,14.43
2023-03-11T04:56:04.792Z,14.00
2023-03-11T04:59:09.107Z,12.65
2023-03-11T05:02:13.434Z,14.38
2023-03-11T05:05:19.403Z,14.68
2023-03-11T05:08:24.397Z,16.52
2023-03-11T05:11:28.846Z,15.35
2023-03-11T05:14:32.898Z,15.02
2023-03-11T05:17:37.079Z,16.35
2023-03-11T05:20:41.395Z,16.30
2023-03-11T05:23:45.653Z,16.85
2023-03-11T05:26:49.891Z,16.30
2023-03-11T05:29:54.290Z,17.58
2023-03-11T05:32:58.511Z,16.20
2023-03-11T05:36:08.495Z,16.60
2023-03-11T05:39:12.609Z,17.17
2023-03-11T05:42:16.484Z,18.70
2023-03-11T05:45:20.803Z,19.63
2023-03-11T05:48:24.789Z,19.05
2023-03-11T05:51:28.796Z,19.52
2023-03-11T05:54:32.651Z,17.27
2023-03-11T05:57:36.835Z,15.43
2023-03-11T06:00:41.256Z,17.50
2023-03-11T06:03:45.699Z,16.30
2023-03-11T06:06:50.066Z,15.68
2023-03-11T06:09:53.806Z,17.67
2023-03-11T06:12:57.990Z,16.70
2023-03-11T06:16:02.213Z,14.10
2023-03-11T06:19:06.716Z,13.57
2023-03-11T06:22:10.676Z,12.63
2023-03-11T06:25:15.133Z,11.43
2023-03-11T06:28:19.395Z,11.82
2023-03-11T06:31:26.102Z,14.10
2023-03-11T06:34:30.127Z,13.35
2023-03-11T06:37:36.993Z,13.18
2023-03-11T06:40:40.882Z,12.75
2023-03-11T06:43:44.823Z,14.65
2023-03-11T06:46:48.891Z,12.70
2023-03-11T06:49:53.232Z,14.30
2023-03-11T06:52:58.091Z,12.65
2023-03-11T06:56:04.908Z,12.77
2023-03-11T06:59:08.878Z,14.55
2023-03-11T07:02:14.198Z,13.77
2023-03-11T07:05:18.365Z,13.25
2023-03-11T07:08:22.575Z,12.40
2023-03-11T07:11:28.057Z,10.98
2023-03-11T07:14:32.258Z,11.52
2023-03-11T07:17:36.092Z,14.63
2023-03-11T07:20:40.288Z,11.32
2023-03-11T07:23:44.844Z,10.60
2023-03-11T07:26:48.855Z,10.88
2023-03-11T07:29:52.982Z,9.60
2023-03-11T07:32:58.285Z,11.77
2023-03-11T07:36:07.819Z,9.85
2023-03-11T07:39:16.100Z,11.88
2023-03-11T07:42:20.656Z,10.95
2023-03-11T07:45:24.821Z,10.25
2023-03-11T07:48:28.923Z,10.93
2023-03-11T07:51:35.188Z,10.05
2023-03-11T07:54:39.432Z,16.05
2023-03-11T07:57:43.756Z,10.40
2023-03-11T08:00:47.699Z,13.63
2023-03-11T08:03:58.676Z,10.82
2023-03-11T08:07:03.102Z,11.80
2023-03-11T08:10:08.019Z,13.50
2023-03-11T08:13:11.965Z,11.55
2023-03-11T08:16:19.117Z,13.88
2023-03-11T08:19:23.232Z,12.15
2023-03-11T08:22:27.643Z,11.35
2023-03-11T08:25:31.826Z,11.52
2023-03-11T08:28:36.348Z,13.25
2023-03-11T08:31:40.707Z,9.93
2023-03-11T08:34:44.637Z,9.85
2023-03-11T08:37:48.836Z,9.45
2023-03-11T08:40:52.539Z,11.60
2023-03-11T08:43:56.455Z,8.32
2023-03-11T08:47:01.215Z,8.95
2023-03-11T08:50:13.682Z,10.27
2023-03-11T08:53:18.023Z,12.20
2023-03-11T08:56:22.196Z,10.80
2023-03-11T08:59:26.180Z,10.90
2023-03-11T09:02:30.113Z,9.23
2023-03-11T09:05:34.525Z,8.60
2023-03-11T09:08:38.909Z,10.93
2023-03-11T09:11:43.200Z,8.57
2023-03-11T09:14:47.444Z,8.27
2023-03-11T09:17:51.709Z,10.45
2023-03-11T09:20:58.377Z,9.50
2023-03-11T09:24:04.279Z,7.10
2023-03-11T09:27:08.620Z,9.80
2023-03-11T09:30:12.793Z,11.70
2023-03-11T09:33:16.852Z,7.97
2023-03-11T09:36:21.817Z,8.05
2023-03-11T09:39:25.714Z,12.60
2023-03-11T09:42:32.716Z,9.60
2023-03-11T09:45:44.248Z,8.43
2023-03-11T09:49:09.626Z,11.27
2023-03-11T09:52:16.463Z,11.95
2023-03-11T09:55:37.799Z,9.88
2023-03-11T09:58:47.069Z,10.23
2023-03-11T10:01:51.695Z,9.52
2023-03-11T10:05:21.962Z,11.50
2023-03-11T10:08:49.043Z,12.43
2023-03-11T10:12:18.245Z,10.43
2023-03-11T10:15:31.633Z,8.40
2023-03-11T10:19:01.668Z,10.45
2023-03-11T10:22:05.711Z,9.18
2023-03-11T10:25:13.647Z,7.57
2023-03-11T10:28:20.709Z,9.88
2023-03-11T10:31:27.465Z,7.78
2023-03-11T10:34:47.126Z,12.15
2023-03-11T10:37:59.366Z,8.07
2023-03-11T10:41:15.570Z,8.90
2023-03-11T10:44:27.472Z,8.48
2023-03-11T10:47:31.572Z,7.80
2023-03-11T10:50:45.296Z,10.07
2023-03-11T10:53:54.321Z,7.55
2023-03-11T10:57:01.147Z,9.23
2023-03-11T11:00:17.322Z,9.35
2023-03-11T11:03:24.202Z,8.27
2023-03-11T11:06:33.891Z,10.93
2023-03-11T11:09:38.024Z,10.55
2023-03-11T11:12:53.442Z,11.82
2023-03-11T11:16:04.013Z,7.78
2023-03-11T11:19:14.641Z,9.25
2023-03-11T11:22:22.003Z,9.13
2023-03-11T11:25:43.579Z,11.23
2023-03-11T11:29:09.141Z,10.38
2023-03-11T11:32:19.221Z,11.23
2023-03-11T11:35:25.436Z,9.60
2023-03-11T11:38:31.087Z,11.18
2023-03-11T11:41:36.785Z,8.98
2023-03-11T11:44:43.182Z,8.07
2023-03-11T11:47:52.108Z,9.95
2023-03-11T11:51:02.406Z,9.27
2023-03-11T11:54:31.040Z,8.57
2023-03-11T11:57:34.868Z,8.88
2023-03-11T12:00:55.610Z,9.38
2023-03-11T12:04:25.143Z,9.07
2023-03-11T12:07:57.192Z,9.68
2023-03-11T12:11:07.072Z,10.52
2023-03-11T12:14:26.712Z,9.80
2023-03-11T12:17:32.272Z,10.18
2023-03-11T12:20:42.835Z,10.07
2023-03-11T12:24:00.650Z,10.75
2023-03-11T12:27:18.462Z,14.23
2023-03-11T12:30:31.382Z,13.52
2023-03-11T12:33:57.213Z,8.52
2023-03-11T12:37:05.012Z,9.38
2023-03-11T12:40:50.553Z,10.90
2023-03-11T12:44:00.157Z,11.63
2023-03-11T12:47:19.186Z,9.27
2023-03-11T12:50:41.646Z,10.27
2023-03-11T12:53:49.691Z,9.13
2023-03-11T12:57:16.104Z,8.52
2023-03-11T13:00:50.002Z,8.23
2023-03-11T13:07:26.810Z,8.50
2023-03-11T13:10:42.433Z,14.02
2023-03-11T13:13:47.071Z,11.20
2023-03-11T13:16:51.224Z,12.32
2023-03-11T13:19:59.311Z,12.68
2023-03-11T13:23:03.196Z,10.02
2023-03-11T13:26:25.084Z,9.18
2023-03-11T13:29:51.954Z,12.73
2023-03-11T13:33:15.765Z,9.73
2023-03-11T13:39:55.049Z,9.27
2023-03-11T13:43:05.291Z,9.68
2023-03-11T13:46:19.657Z,8.95
2023-03-11T13:49:51.989Z,9.80
2023-03-11T13:52:58.321Z,8.65
2023-03-11T13:56:02.271Z,6.60
2023-03-11T13:59:18.548Z,8.13
2023-03-11T14:02:27.309Z,8.23
2023-03-11T14:05:34.852Z,9.57
2023-03-11T14:08:40.910Z,8.75
2023-03-11T14:11:48.004Z,8.80
2023-03-11T14:14:58.275Z,10.07
2023-03-11T14:18:57.893Z,11.40
2023-03-11T14:22:01.924Z,7.72
2023-03-11T14:25:09.693Z,8.90
2023-03-11T14:28:19.791Z,9.25
2023-03-11T14:31:25.752Z,10.32
2023-03-11T14:34:31.036Z,7.15
2023-03-11T14:37:38.016Z,7.78
2023-03-11T14:40:42.099Z,8.02
2023-03-11T14:43:51.060Z,6.95
2023-03-11T14:47:31.200Z,7.22
2023-03-11T14:50:36.209Z,6.20
2023-03-11T14:53:47.998Z,3.97
2023-03-11T14:57:02.756Z,5.50
2023-03-11T15:00:16.441Z,4.65
2023-03-11T15:03:28.949Z,8.40
2023-03-11T15:06:35.802Z,5.88
2023-03-11T15:09:40.716Z,7.70
2023-03-11T15:12:45.720Z,8.00
2023-03-11T15:15:57.356Z,3.17
2023-03-11T15:19:27.788Z,4.68
2023-03-11T15:22:41.263Z,10.15
2023-03-11T15:25:49.332Z,5.63
2023-03-11T15:29:01.895Z,5.97
2023-03-11T15:32:42.109Z,7.57
2023-03-11T15:35:48.076Z,5.00
2023-03-11T15:39:13.728Z,6.57
2023-03-11T15:42:26.169Z,6.07
2023-03-11T15:45:30.382Z,7.50
2023-03-11T15:48:34.335Z,5.35
2023-03-11T15:51:38.558Z,5.45
2023-03-11T15:54:47.403Z,8.30
2023-03-11T15:58:07.800Z,10.90
2023-03-11T16:01:12.076Z,5.85
2023-03-11T16:04:19.923Z,5.55
2023-03-11T16:07:38.606Z,7.95
2023-03-11T16:10:45.938Z,6.30
2023-03-11T16:13:50.001Z,5.40
2023-03-11T16:16:54.121Z,7.25
2023-03-11T16:19:58.532Z,7.70
2023-03-11T16:23:02.992Z,9.05
2023-03-11T16:26:09.696Z,9.45
2023-03-11T16:29:19.260Z,7.60
2023-03-11T16:32:24.267Z,8.00
2023-03-11T16:35:28.639Z,8.80
2023-03-11T16:38:43.379Z,8.52
2023-03-11T16:41:47.576Z,6.25
2023-03-11T16:44:51.822Z,10.18
2023-03-11T16:47:55.833Z,7.40
2023-03-11T16:51:00.177Z,7.40
2023-03-11T16:54:04.675Z,12.75
2023-03-11T16:57:08.854Z,9.60
2023-03-11T17:00:14.736Z,7.63
2023-03-11T17:03:21.801Z,7.22
2023-03-11T17:06:26.187Z,6.50
2023-03-11T17:09:30.308Z,17.73
2023-03-11T17:12:35.979Z,8.82
2023-03-11T17:15:42.299Z,7.70
2023-03-11T17:18:46.708Z,6.45
2023-03-11T17:21:51.288Z,5.53
2023-03-11T17:24:55.240Z,11.57
2023-03-11T17:27:59.470Z,10.23
2023-03-11T17:31:03.989Z,8.52
2023-03-11T17:34:08.169Z,20.48
2023-03-11T17:37:12.396Z,14.20
2023-03-11T17:40:16.375Z,10.02
2023-03-11T17:43:20.844Z,11.27
2023-03-11T17:46:24.948Z,13.30
2023-03-11T17:49:28.884Z,17.63
2023-03-11T17:52:33.072Z,19.42
2023-03-11T17:55:39.948Z,18.30
2023-03-11T17:58:44.613Z,10.77
2023-03-11T18:01:48.822Z,15.63
2023-03-11T18:04:53.845Z,14.85
2023-03-11T18:07:58.484Z,7.53
2023-03-11T18:11:05.218Z,12.18
2023-03-11T18:14:10.023Z,12.55
2023-03-11T18:17:14.228Z,16.30
2023-03-11T18:20:18.456Z,14.60
2023-03-11T18:23:22.716Z,17.92
2023-03-11T18:26:29.062Z,18.10
2023-03-11T18:29:32.815Z,14.93
2023-03-11T18:32:36.757Z,15.75
2023-03-11T18:35:41.095Z,13.05
2023-03-11T18:38:45.920Z,15.00
2023-03-11T18:41:50.503Z,20.92
2023-03-11T18:44:54.742Z,16.85
2023-03-11T18:47:58.401Z,14.82
2023-03-11T18:51:02.487Z,17.85
2023-03-11T18:54:07.059Z,13.98
2023-03-11T18:57:11.512Z,17.85
2023-03-11T19:00:22.215Z,15.80
2023-03-11T19:03:26.348Z,17.33
2023-03-11T19:06:30.310Z,14.50
2023-03-11T19:09:34.445Z,18.92
2023-03-11T19:12:39.939Z,21.67
2023-03-11T19:15:44.290Z,23.40
2023-03-11T19:18:48.841Z,17.60
2023-03-11T19:21:52.937Z,17.27
2023-03-11T19:24:56.919Z,17.50
2023-03-11T19:28:00.929Z,23.00
2023-03-11T19:31:05.726Z,25.30
2023-03-11T19:34:10.250Z,18.63
2023-03-11T19:37:14.493Z,17.17
2023-03-11T19:40:18.745Z,18.67
2023-03-11T19:43:23.747Z,17.60
2023-03-11T19:46:29.364Z,17.50
2023-03-11T19:49:33.902Z,17.48
2023-03-11T19:52:37.943Z,18.98
2023-03-11T19:55:51.286Z,17.50
2023-03-11T19:58:56.686Z,19.92
2023-03-11T20:02:01.284Z,24.27
2023-03-11T20:05:05.631Z,19.65
2023-03-11T20:08:11.850Z,17.75
2023-03-11T20:11:16.445Z,17.98
2023-03-11T20:14:20.678Z,18.80
2023-03-11T20:17:24.854Z,20.17
2023-03-11T20:20:29.971Z,16.25
2023-03-11T20:23:34.523Z,16.67
2023-03-11T20:26:38.954Z,20.10
2023-03-11T20:29:42.869Z,19.42
2023-03-11T20:32:47.253Z,15.10
2023-03-11T20:35:51.695Z,17.60
2023-03-11T20:38:56.378Z,19.15
2023-03-11T20:41:59.966Z,17.15
2023-03-11T20:45:04.724Z,17.23
2023-03-11T20:48:08.937Z,13.48
2023-03-11T20:51:16.208Z,18.42
2023-03-11T20:54:20.084Z,15.18
2023-03-11T20:57:24.089Z,14.05
2023-03-11T21:00:28.158Z,13.63
2023-03-11T21:03:32.292Z,12.93
2023-03-11T21:06:39.035Z,18.17
2023-03-11T21:09:43.168Z,15.18
2023-03-11T21:12:47.235Z,14.35
2023-03-11T21:15:55.003Z,12.48
2023-03-11T21:19:01.302Z,12.80
2023-03-11T21:22:06.605Z,13.05
2023-03-11T21:25:10.896Z,15.43
2023-03-11T21:28:15.463Z,15.85
2023-03-11T21:31:21.937Z,12.15
2023-03-11T21:34:26.345Z,13.02
2023-03-11T21:37:30.702Z,13.43
2023-03-11T21:40:34.924Z,13.60
2023-03-11T21:43:41.632Z,11.88
2023-03-11T21:46:45.792Z,14.88
2023-03-11T21:49:50.173Z,10.80
2023-03-11T21:52:54.334Z,12.45
2023-03-11T21:55:59.714Z,11.88
2023-03-11T21:59:04.267Z,14.93
2023-03-11T22:02:14.485Z,15.80
2023-03-11T22:05:18.932Z,10.70
2023-03-11T22:08:22.981Z,12.70
2023-03-11T22:11:27.722Z,16.80
2023-03-11T22:14:32.176Z,14.52
2023-03-11T22:17:36.361Z,10.00
2023-03-11T22:20:41.268Z,11.60
2023-03-11T22:23:45.529Z,12.52
2023-03-11T22:26:49.747Z,18.35
2023-03-11T22:29:53.906Z,15.35
2023-03-11T22:32:58.010Z,13.02
2023-03-11T22:36:04.318Z,10.82
2023-03-11T22:39:08.404Z,11.52
2023-03-11T22:42:12.992Z,11.05
2023-03-11T22:45:17.086Z,14.57
2023-03-11T22:48:20.973Z,15.80
2023-03-11T22:51:24.991Z,13.75
2023-03-11T22:54:29.613Z,13.00
2023-03-11T22:57:38.537Z,10.95
2023-03-11T23:00:44.218Z,14.13
2023-03-11T23:03:48.069Z,13.40
2023-03-11T23:06:54.348Z,11.93
2023-03-11T23:09:58.063Z,12.68
2023-03-11T23:13:02.071Z,12.38
2023-03-11T23:16:14.186Z,14.60
2023-03-11T23:19:18.395Z,11.88
2023-03-11T23:22:22.195Z,12.07
2023-03-11T23:25:26.829Z,10.48
2023-03-11T23:28:30.903Z,17.02
2023-03-11T23:31:36.312Z,12.13
2023-03-11T23:34:40.426Z,11.40
2023-03-11T23:37:48.830Z,12.27
2023-03-11T23:40:52.980Z,10.40
2023-03-11T23:43:57.622Z,16.02
2023-03-11T23:47:02.174Z,10.95
2023-03-11T23:50:06.639Z,11.93
2023-03-11T23:53:10.673Z,12.60
2023-03-11T23:56:17.608Z,11.80
2023-03-11T23:59:21.920Z,13.02
